Time,TemperatureF,DewpointF,PressureIn,WindDirection,WindDirectionDegrees,WindSpeedMPH,WindSpeedGustMPH,Humidity,HourlyPrecipIn,Conditions,Clouds,dailyrainin,SoftwareType,DateUTC
2013-03-24 00:09:00,32.0,20.0,30.15,ESE,117,1.0,4.0,61,0.00,,,0.00,weatherlink.com 1.10,2013-03-24 04:09:00,
2013-03-24 00:24:00,34.4,20.0,30.14,ESE,113,0.0,2.0,55,0.00,,,0.00,weatherlink.com 1.10,2013-03-24 04:24:00,
2013-03-24 00:39:00,33.8,19.0,30.12,East,101,0.0,2.0,56,0.00,,,0.00,weatherlink.com 1.10,2013-03-24 04:39:00,
2013-03-24 00:54:00,33.4,19.0,30.10,SE,134,0.0,1.0,57,0.00,,,0.00,weatherlink.com 1.10,2013-03-24 04:54:00,
2013-03-24 01:09:00,34.4,19.0,30.09,East,98,1.0,4.0,53,0.00,,,0.00,weatherlink.com 1.10,2013-03-24 05:09:00,
2013-03-24 01:24:00,34.6,19.0,30.09,ESE,104,0.0,5.0,53,0.00,,,0.00,weatherlink.com 1.10,2013-03-24 05:24:00,
2013-03-24 01:39:00,34.7,19.0,30.08,ESE,113,0.0,3.0,52,0.00,,,0.00,weatherlink.com 1.10,2013-03-24 05:39:00,
2013-03-24 01:54:00,34.9,19.0,30.09,SE,125,0.0,4.0,52,0.00,,,0.00,weatherlink.com 1.10,2013-03-24 05:54:00,
2013-03-24 02:09:00,35.5,19.0,30.09,ESE,119,1.0,5.0,51,0.00,,,0.00,weatherlink.com 1.10,2013-03-24 06:09:00,
2013-03-24 02:24:00,35.3,19.0,30.09,ESE,116,2.0,5.0,51,0.00,,,0.00,weatherlink.com 1.10,2013-03-24 06:24:00,
2013-03-24 02:39:00,35.1,20.0,30.09,East,89,0.0,3.0,55,0.00,,,0.00,weatherlink.com 1.10,2013-03-24 06:39:00,
2013-03-24 02:54:00,35.2,19.0,30.09,ESE,115,0.0,5.0,53,0.00,,,0.00,weatherlink.com 1.10,2013-03-24 06:54:00,
2013-03-24 03:09:00,35.3,19.0,30.09,ESE,115,4.0,7.0,51,0.00,,,0.00,weatherlink.com 1.10,2013-03-24 07:09:00,
2013-03-24 03:24:00,35.5,19.0,30.09,ENE,57,1.0,7.0,52,0.00,,,0.00,weatherlink.com 1.10,2013-03-24 07:24:00,
2013-03-24 03:39:00,35.7,19.0,30.09,ESE,111,0.0,12.0,51,0.00,,,0.00,weatherlink.com 1.10,2013-03-24 07:39:00,
2013-03-24 03:54:00,35.7,19.0,30.08,East,80,8.0,11.0,51,0.00,,,0.00,weatherlink.com 1.10,2013-03-24 07:54:00,
2013-03-24 04:09:00,35.7,19.0,30.05,SE,126,2.0,10.0,52,0.00,,,0.00,weatherlink.com 1.10,2013-03-24 08:09:00,
2013-03-24 04:24:00,35.7,20.0,30.03,ESE,115,3.0,11.0,53,0.00,,,0.00,weatherlink.com 1.10,2013-03-24 08:24:00,
2013-03-24 04:39:00,36.0,20.0,30.02,East,85,0.0,13.0,53,0.00,,,0.00,weatherlink.com 1.10,2013-03-24 08:39:00,
2013-03-24 04:54:00,35.9,20.0,30.02,ESE,105,4.0,10.0,53,0.00,,,0.00,weatherlink.com 1.10,2013-03-24 08:54:00,
2013-03-24 05:09:00,36.0,20.0,30.01,ESE,117,1.0,13.0,52,0.00,,,0.00,weatherlink.com 1.10,2013-03-24 09:09:00,
2013-03-24 05:24:00,36.1,20.0,30.00,ESE,122,1.0,10.0,52,0.00,,,0.00,weatherlink.com 1.10,2013-03-24 09:24:00,
2013-03-24 05:39:00,36.0,20.0,30.00,SE,142,3.0,15.0,53,0.00,,,0.00,weatherlink.com 1.10,2013-03-24 09:39:00,
2013-03-24 05:54:00,36.1,20.0,30.00,ESE,112,0.0,9.0,52,0.00,,,0.00,weatherlink.com 1.10,2013-03-24 09:54:00,
2013-03-24 06:09:00,36.0,19.0,30.01,ESE,113,5.0,10.0,50,0.00,,,0.00,weatherlink.com 1.10,2013-03-24 10:09:00,
2013-03-24 06:24:00,36.1,19.0,30.02,SE,128,5.0,13.0,50,0.00,,,0.00,weatherlink.com 1.10,2013-03-24 10:24:00,
2013-03-24 06:39:00,35.9,18.0,30.02,ESE,119,3.0,9.0,49,0.00,,,0.00,weatherlink.com 1.10,2013-03-24 10:39:00,
2013-03-24 06:54:00,35.3,19.0,30.01,ESE,115,0.0,8.0,51,0.00,,,0.00,weatherlink.com 1.10,2013-03-24 10:54:00,
2013-03-24 07:09:00,34.8,18.0,30.00,North,355,1.0,8.0,51,0.00,,,0.00,weatherlink.com 1.10,2013-03-24 11:09:00,
2013-03-24 07:24:00,34.3,19.0,29.98,ESE,117,0.0,13.0,54,0.00,,,0.00,weatherlink.com 1.10,2013-03-24 11:24:00,
2013-03-24 07:39:00,34.3,19.0,29.98,SE,124,3.0,9.0,54,0.00,,,0.00,weatherlink.com 1.10,2013-03-24 11:39:00,
2013-03-24 07:54:00,34.1,20.0,29.98,ESE,111,1.0,7.0,56,0.00,,,0.00,weatherlink.com 1.10,2013-03-24 11:54:00,
2013-03-24 08:09:00,34.0,20.0,29.98,ESE,111,4.0,8.0,56,0.00,,,0.00,weatherlink.com 1.10,2013-03-24 12:09:00,
2013-03-24 08:24:00,34.0,20.0,29.98,SE,138,4.0,9.0,57,0.00,,,0.00,weatherlink.com 1.10,2013-03-24 12:24:00,
2013-03-24 08:39:00,33.5,23.0,29.98,ESE,123,2.0,14.0,65,0.00,,,0.00,weatherlink.com 1.10,2013-03-24 12:39:00,
2013-03-24 08:55:00,32.6,26.0,29.98,ESE,117,3.0,14.0,77,0.00,,,0.00,weatherlink.com 1.10,2013-03-24 12:55:00,
2013-03-24 09:10:00,32.0,27.0,29.98,ESE,120,1.0,11.0,81,0.01,,,0.01,weatherlink.com 1.10,2013-03-24 13:10:00,
2013-03-24 09:25:00,31.4,27.0,29.97,ESE,116,3.0,9.0,84,0.02,,,0.02,weatherlink.com 1.10,2013-03-24 13:25:00,
2013-03-24 09:40:00,30.8,27.0,29.96,ESE,116,2.0,8.0,86,0.02,,,0.02,weatherlink.com 1.10,2013-03-24 13:40:00,
2013-03-24 09:55:00,30.5,27.0,29.95,ESE,114,3.0,7.0,87,0.02,,,0.02,weatherlink.com 1.10,2013-03-24 13:55:00,
2013-03-24 10:10:00,30.3,27.0,29.95,ESE,116,2.0,8.0,88,0.01,,,0.02,weatherlink.com 1.10,2013-03-24 14:10:00,
2013-03-24 10:25:00,29.9,27.0,29.94,ESE,103,1.0,7.0,90,0.00,,,0.02,weatherlink.com 1.10,2013-03-24 14:25:00,
2013-03-24 10:40:00,29.8,27.0,29.93,ESE,115,1.0,7.0,90,0.00,,,0.02,weatherlink.com 1.10,2013-03-24 14:40:00,
2013-03-24 10:55:00,29.8,28.0,29.90,SE,129,4.0,8.0,91,0.00,,,0.02,weatherlink.com 1.10,2013-03-24 14:55:00,
2013-03-24 11:10:00,30.0,28.0,29.90,ESE,123,3.0,10.0,91,0.00,,,0.02,weatherlink.com 1.10,2013-03-24 15:10:00,
2013-03-24 11:25:00,30.1,28.0,29.88,SE,140,0.0,10.0,92,0.00,,,0.02,weatherlink.com 1.10,2013-03-24 15:25:00,
2013-03-24 11:40:00,30.2,29.0,29.89,ESE,115,5.0,11.0,93,0.00,,,0.02,weatherlink.com 1.10,2013-03-24 15:40:00,
2013-03-24 11:55:00,30.4,29.0,29.87,ESE,121,2.0,14.0,93,0.00,,,0.02,weatherlink.com 1.10,2013-03-24 15:55:00,
2013-03-24 12:10:00,30.2,29.0,29.87,ESE,113,4.0,12.0,93,0.00,,,0.02,weatherlink.com 1.10,2013-03-24 16:10:00,
2013-03-24 12:25:00,30.2,29.0,29.86,ESE,117,0.0,13.0,94,0.00,,,0.02,weatherlink.com 1.10,2013-03-24 16:25:00,
2013-03-24 12:40:00,30.2,29.0,29.86,ESE,123,5.0,15.0,94,0.00,,,0.02,weatherlink.com 1.10,2013-03-24 16:40:00,
2013-03-24 12:55:00,30.1,29.0,29.86,ESE,119,9.0,17.0,94,0.00,,,0.02,weatherlink.com 1.10,2013-03-24 16:55:00,
2013-03-24 13:10:00,29.9,28.0,29.86,SE,130,4.0,17.0,94,0.00,,,0.02,weatherlink.com 1.10,2013-03-24 17:10:00,
2013-03-24 13:25:00,29.8,28.0,29.85,ESE,109,5.0,13.0,94,0.00,,,0.02,weatherlink.com 1.10,2013-03-24 17:25:00,
2013-03-24 13:40:00,29.6,28.0,29.84,ESE,121,4.0,16.0,94,0.00,,,0.02,weatherlink.com 1.10,2013-03-24 17:40:00,
2013-03-24 13:55:00,29.3,28.0,29.82,ESE,115,5.0,16.0,94,0.00,,,0.02,weatherlink.com 1.10,2013-03-24 17:55:00,
2013-03-24 14:10:00,29.4,28.0,29.82,ESE,114,5.0,16.0,94,0.00,,,0.02,weatherlink.com 1.10,2013-03-24 18:10:00,
2013-03-24 14:25:00,29.2,28.0,29.82,ESE,118,2.0,18.0,94,0.00,,,0.02,weatherlink.com 1.10,2013-03-24 18:25:00,
2013-03-24 14:40:00,29.0,28.0,29.81,ESE,121,5.0,18.0,94,0.00,,,0.02,weatherlink.com 1.10,2013-03-24 18:40:00,
2013-03-24 14:56:00,29.0,28.0,29.80,East,93,7.0,17.0,94,0.00,,,0.02,weatherlink.com 1.10,2013-03-24 18:56:00,
2013-03-24 15:11:00,29.3,28.0,29.78,ESE,113,9.0,15.0,94,0.00,,,0.02,weatherlink.com 1.10,2013-03-24 19:11:00,
2013-03-24 15:26:00,29.5,28.0,29.77,ESE,117,10.0,15.0,94,0.00,,,0.02,weatherlink.com 1.10,2013-03-24 19:26:00,
2013-03-24 15:41:00,29.8,28.0,29.77,ESE,116,3.0,14.0,94,0.00,,,0.02,weatherlink.com 1.10,2013-03-24 19:41:00,
2013-03-24 16:11:00,30.0,29.0,29.75,SE,133,1.0,17.0,94,0.01,,,0.03,weatherlink.com 1.10,2013-03-24 20:11:00,
2013-03-24 16:56:00,30.4,29.0,29.75,SE,127,4.0,10.0,94,0.00,,,0.03,weatherlink.com 1.10,2013-03-24 20:56:00,
2013-03-24 17:11:00,30.3,29.0,29.74,SSE,165,1.0,8.0,95,0.02,,,0.05,weatherlink.com 1.10,2013-03-24 21:11:00,
2013-03-24 18:26:00,30.2,29.0,29.70,ESE,107,2.0,9.0,95,0.00,,,0.00,weatherlink.com 1.10,2013-03-24 22:26:00,
2013-03-24 18:56:00,30.1,29.0,29.71,ESE,107,0.0,9.0,95,0.00,,,0.00,weatherlink.com 1.10,2013-03-24 22:56:00,
2013-03-24 19:11:00,30.0,29.0,29.72,ESE,107,2.0,11.0,95,0.00,,,0.00,weatherlink.com 1.10,2013-03-24 23:11:00,
2013-03-24 19:26:00,30.0,29.0,29.71,ESE,107,2.0,12.0,95,0.00,,,0.00,weatherlink.com 1.10,2013-03-24 23:26:00,
2013-03-24 19:41:00,29.9,29.0,29.71,ESE,107,3.0,11.0,95,0.00,,,0.00,weatherlink.com 1.10,2013-03-24 23:41:00,
2013-03-24 19:56:00,29.9,29.0,29.72,ESE,107,12.0,13.0,96,0.00,,,0.00,weatherlink.com 1.10,2013-03-24 23:56:00,
2013-03-24 20:11:00,29.9,29.0,29.72,ESE,107,0.0,11.0,96,0.00,,,0.00,weatherlink.com 1.10,2013-03-25 00:11:00,
2013-03-24 20:26:00,29.9,29.0,29.72,ESE,107,3.0,13.0,96,0.00,,,0.00,weatherlink.com 1.10,2013-03-25 00:26:00,
2013-03-24 20:56:00,29.7,29.0,29.70,ESE,107,4.0,11.0,96,0.00,,,0.00,weatherlink.com 1.10,2013-03-25 00:56:00,
2013-03-24 21:11:00,29.7,29.0,29.70,ESE,107,4.0,13.0,96,0.00,,,0.00,weatherlink.com 1.10,2013-03-25 01:11:00,
2013-03-24 21:27:00,29.7,29.0,29.68,ESE,107,4.0,14.0,96,0.00,,,0.00,weatherlink.com 1.10,2013-03-25 01:27:00,
2013-03-24 21:42:00,29.6,29.0,29.68,ESE,107,2.0,9.0,96,0.00,,,0.00,weatherlink.com 1.10,2013-03-25 01:42:00,
2013-03-24 21:56:00,29.6,29.0,29.67,ESE,107,2.0,12.0,96,0.00,,,0.00,weatherlink.com 1.10,2013-03-25 01:56:00,
2013-03-24 22:11:00,29.5,29.0,29.70,ESE,107,2.0,12.0,96,0.00,,,0.00,weatherlink.com 1.10,2013-03-25 02:11:00,
2013-03-24 22:26:00,29.4,28.0,29.71,ESE,107,1.0,10.0,96,0.00,,,0.00,weatherlink.com 1.10,2013-03-25 02:26:00,
2013-03-24 22:41:00,29.3,28.0,29.71,ESE,107,4.0,10.0,96,0.00,,,0.00,weatherlink.com 1.10,2013-03-25 02:41:00,
2013-03-24 22:56:00,29.5,29.0,29.74,ESE,107,1.0,7.0,96,0.00,,,0.00,weatherlink.com 1.10,2013-03-25 02:56:00,
2013-03-24 23:12:00,29.8,29.0,29.73,ESE,107,0.0,9.0,96,0.00,,,0.00,weatherlink.com 1.10,2013-03-25 03:12:00,
2013-03-24 23:27:00,29.7,29.0,29.73,ESE,107,2.0,5.0,96,0.00,,,0.00,weatherlink.com 1.10,2013-03-25 03:27:00,
2013-03-24 23:42:00,29.7,29.0,29.74,ESE,107,3.0,9.0,96,0.00,,,0.00,weatherlink.com 1.10,2013-03-25 03:42:00,
2013-03-24 23:57:00,29.6,29.0,29.74,ESE,107,3.0,4.0,96,0.00,,,0.00,weatherlink.com 1.10,2013-03-25 03:57:00,